NCAR-RAP Real-Time Weather Data

Output produced by METARs form (12 August 2020  17:40 UTC)
found at http://weather.rap.ucar.edu/surface/
 
KPSC 121653Z 22013KT 10SM FEW120 22/07 A2993 RMK AO2 SLP132 T02170067
KPSC 121553Z VRB03KT 10SM FEW080 OVC100 21/07 A2992 RMK AO2 SLP127 T02110067
KPSC 121453Z 00000KT 10SM BKN110 21/07 A2989 RMK AO2 SLP119 T02060067 51014
KPSC 121353Z 11004KT 10SM CLR 20/07 A2989 RMK AO2 SLP117 T02000067
KPSC 121253Z AUTO 31003KT 10SM CLR 18/05 A2987 RMK AO2 SLP110 T01830050 TSNO
KPSC 121153Z AUTO 23004KT 10SM CLR 20/03 A2985 RMK AO2 SLP104 T02000033 10244 20172 52016 TSNO
KPSC 121053Z AUTO 29005KT 10SM CLR 18/07 A2984 RMK AO2 SLP099 T01780067 TSNO
KPSC 120953Z AUTO 00000KT 10SM CLR 19/06 A2982 RMK AO2 SLP093 T01940056 TSNO
KPSC 120853Z AUTO 23004KT 10SM CLR 22/03 A2980 RMK AO2 SLP088 T02170033 51015
KPSC 120753Z AUTO 24008KT 10SM CLR 22/04 A2980 RMK AO2 SLP087 T02170044 403560150
KPSC 120653Z AUTO 21006KT 10SM CLR 23/04 A2978 RMK AO2 SLP079 T02330044
KPSC 120553Z AUTO 00000KT 10SM CLR 24/03 A2976 RMK AO2 SLP073 T02390028 10356 20222 51026
KPSC 120453Z AUTO 26008KT 10SM CLR 24/03 A2975 RMK AO2 SLP070 T02390033
KPSC 120353Z 30010KT 10SM CLR 23/07 A2972 RMK AO2 SLP061 T02330067
KPSC 120253Z 30007KT 10SM CLR 27/04 A2968 RMK AO2 SLP047 T02720044 55001
KPSC 120153Z 23014KT 10SM CLR 33/01 A2966 RMK AO2 SLP041 T03280011
KPSC 120053Z 24015G22KT 10SM CLR 34/01 A2967 RMK AO2 SLP042 T03440006
KPSC 112353Z 21017G23KT 10SM CLR 36/02 A2968 RMK AO2 SLP047 T03560017 10356 20283 58027
KPSC 112253Z 20012KT 10SM CLR 35/02 A2971 RMK AO2 SLP055 T03500017